sensor_id;sensor_type;location;lat;lon;timestamp;P1;durP1;ratioP1;P2;durP2;ratioP2
42260;SDS011;27926;48.062;7.474;2022-12-24T00:00:54;6.50;;;1.88;;
42260;SDS011;27926;48.062;7.474;2022-12-24T00:03:20;8.05;;;1.55;;
42260;SDS011;27926;48.062;7.474;2022-12-24T00:05:44;7.53;;;2.15;;
42260;SDS011;27926;48.062;7.474;2022-12-24T00:08:09;7.95;;;1.23;;
42260;SDS011;27926;48.062;7.474;2022-12-24T00:10:34;15.52;;;2.00;;
42260;SDS011;27926;48.062;7.474;2022-12-24T00:12:58;10.27;;;2.70;;
42260;SDS011;27926;48.062;7.474;2022-12-24T00:15:23;20.83;;;2.30;;
42260;SDS011;27926;48.062;7.474;2022-12-24T00:17:47;16.20;;;1.90;;
42260;SDS011;27926;48.062;7.474;2022-12-24T00:20:12;11.10;;;2.67;;
42260;SDS011;27926;48.062;7.474;2022-12-24T00:22:36;19.02;;;1.80;;
42260;SDS011;27926;48.062;7.474;2022-12-24T00:25:01;8.48;;;1.70;;
42260;SDS011;27926;48.062;7.474;2022-12-24T00:27:26;9.32;;;1.63;;
42260;SDS011;27926;48.062;7.474;2022-12-24T00:29:50;14.30;;;2.53;;
42260;SDS011;27926;48.062;7.474;2022-12-24T00:32:15;16.58;;;1.75;;
42260;SDS011;27926;48.062;7.474;2022-12-24T00:34:39;13.93;;;2.42;;
42260;SDS011;27926;48.062;7.474;2022-12-24T00:37:04;12.82;;;2.30;;
42260;SDS011;27926;48.062;7.474;2022-12-24T00:39:30;14.43;;;1.98;;
42260;SDS011;27926;48.062;7.474;2022-12-24T00:41:54;12.13;;;2.08;;
42260;SDS011;27926;48.062;7.474;2022-12-24T00:44:19;17.02;;;2.22;;
42260;SDS011;27926;48.062;7.474;2022-12-24T00:46:44;12.75;;;1.40;;
42260;SDS011;27926;48.062;7.474;2022-12-24T00:49:08;11.32;;;1.70;;
42260;SDS011;27926;48.062;7.474;2022-12-24T00:54:00;8.88;;;1.90;;
42260;SDS011;27926;48.062;7.474;2022-12-24T00:56:25;11.32;;;1.95;;
42260;SDS011;27926;48.062;7.474;2022-12-24T00:58:50;9.13;;;1.38;;
42260;SDS011;27926;48.062;7.474;2022-12-24T01:01:16;13.70;;;2.45;;
42260;SDS011;27926;48.062;7.474;2022-12-24T01:03:41;7.38;;;2.05;;
42260;SDS011;27926;48.062;7.474;2022-12-24T01:06:07;10.20;;;3.40;;
42260;SDS011;27926;48.062;7.474;2022-12-24T01:08:34;9.75;;;1.88;;
42260;SDS011;27926;48.062;7.474;2022-12-24T01:10:59;10.10;;;1.90;;
42260;SDS011;27926;48.062;7.474;2022-12-24T01:13:25;8.35;;;1.63;;
42260;SDS011;27926;48.062;7.474;2022-12-24T01:15:49;12.10;;;2.70;;
42260;SDS011;27926;48.062;7.474;2022-12-24T01:18:14;8.52;;;2.45;;
42260;SDS011;27926;48.062;7.474;2022-12-24T01:20:39;13.20;;;2.85;;
42260;SDS011;27926;48.062;7.474;2022-12-24T01:23:03;6.72;;;1.55;;
42260;SDS011;27926;48.062;7.474;2022-12-24T01:25:28;10.23;;;2.50;;
42260;SDS011;27926;48.062;7.474;2022-12-24T01:27:53;12.00;;;1.92;;
42260;SDS011;27926;48.062;7.474;2022-12-24T01:30:17;9.27;;;1.92;;
42260;SDS011;27926;48.062;7.474;2022-12-24T01:32:42;11.63;;;2.35;;
42260;SDS011;27926;48.062;7.474;2022-12-24T01:35:07;5.47;;;1.70;;
42260;SDS011;27926;48.062;7.474;2022-12-24T01:37:33;12.30;;;2.72;;
42260;SDS011;27926;48.062;7.474;2022-12-24T01:39:57;17.10;;;2.17;;
42260;SDS011;27926;48.062;7.474;2022-12-24T01:42:42;7.18;;;1.63;;
42260;SDS011;27926;48.062;7.474;2022-12-24T01:45:34;9.23;;;1.73;;
42260;SDS011;27926;48.062;7.474;2022-12-24T01:48:10;14.00;;;1.77;;
42260;SDS011;27926;48.062;7.474;2022-12-24T01:50:39;8.50;;;2.65;;
42260;SDS011;27926;48.062;7.474;2022-12-24T01:53:03;5.07;;;1.48;;
42260;SDS011;27926;48.062;7.474;2022-12-24T01:55:29;10.02;;;1.45;;
42260;SDS011;27926;48.062;7.474;2022-12-24T01:57:55;8.45;;;1.33;;
42260;SDS011;27926;48.062;7.474;2022-12-24T02:00:22;6.63;;;2.00;;
42260;SDS011;27926;48.062;7.474;2022-12-24T02:02:47;6.38;;;1.52;;
42260;SDS011;27926;48.062;7.474;2022-12-24T02:05:26;10.25;;;1.70;;
42260;SDS011;27926;48.062;7.474;2022-12-24T02:07:58;3.65;;;1.30;;
42260;SDS011;27926;48.062;7.474;2022-12-24T02:10:25;8.30;;;2.05;;
42260;SDS011;27926;48.062;7.474;2022-12-24T02:12:50;9.43;;;1.88;;
42260;SDS011;27926;48.062;7.474;2022-12-24T02:15:16;6.07;;;1.17;;
42260;SDS011;27926;48.062;7.474;2022-12-24T02:20:37;7.45;;;1.75;;
42260;SDS011;27926;48.062;7.474;2022-12-24T02:31:43;4.70;;;1.50;;
42260;SDS011;27926;48.062;7.474;2022-12-24T02:34:27;6.38;;;1.35;;
42260;SDS011;27926;48.062;7.474;2022-12-24T02:37:16;10.60;;;1.65;;
42260;SDS011;27926;48.062;7.474;2022-12-24T02:39:50;8.55;;;2.08;;
42260;SDS011;27926;48.062;7.474;2022-12-24T02:42:21;7.05;;;1.33;;
42260;SDS011;27926;48.062;7.474;2022-12-24T02:44:51;11.13;;;1.65;;
42260;SDS011;27926;48.062;7.474;2022-12-24T02:47:19;4.13;;;1.23;;
42260;SDS011;27926;48.062;7.474;2022-12-24T02:49:47;14.20;;;1.70;;
42260;SDS011;27926;48.062;7.474;2022-12-24T02:54:57;8.20;;;1.30;;
42260;SDS011;27926;48.062;7.474;2022-12-24T02:57:39;8.40;;;1.60;;
42260;SDS011;27926;48.062;7.474;2022-12-24T03:00:17;8.98;;;1.63;;
42260;SDS011;27926;48.062;7.474;2022-12-24T03:05:28;9.52;;;1.60;;
42260;SDS011;27926;48.062;7.474;2022-12-24T03:07:59;7.18;;;1.73;;
42260;SDS011;27926;48.062;7.474;2022-12-24T03:10:28;9.43;;;2.85;;
42260;SDS011;27926;48.062;7.474;2022-12-24T03:13:02;15.35;;;1.83;;
42260;SDS011;27926;48.062;7.474;2022-12-24T03:15:30;11.80;;;1.98;;
42260;SDS011;27926;48.062;7.474;2022-12-24T03:20:43;13.25;;;1.35;;
42260;SDS011;27926;48.062;7.474;2022-12-24T03:23:11;13.60;;;2.03;;
42260;SDS011;27926;48.062;7.474;2022-12-24T03:25:37;12.93;;;1.77;;
42260;SDS011;27926;48.062;7.474;2022-12-24T03:28:04;13.68;;;1.73;;
42260;SDS011;27926;48.062;7.474;2022-12-24T03:30:30;13.95;;;1.70;;
42260;SDS011;27926;48.062;7.474;2022-12-24T03:32:55;14.15;;;1.50;;
42260;SDS011;27926;48.062;7.474;2022-12-24T03:35:20;13.23;;;2.15;;
42260;SDS011;27926;48.062;7.474;2022-12-24T03:37:45;11.20;;;1.45;;
42260;SDS011;27926;48.062;7.474;2022-12-24T03:40:09;8.55;;;2.00;;
42260;SDS011;27926;48.062;7.474;2022-12-24T03:42:34;15.70;;;1.80;;
42260;SDS011;27926;48.062;7.474;2022-12-24T03:44:59;12.10;;;2.47;;
42260;SDS011;27926;48.062;7.474;2022-12-24T03:47:23;17.52;;;2.80;;
42260;SDS011;27926;48.062;7.474;2022-12-24T03:49:48;11.20;;;1.80;;
42260;SDS011;27926;48.062;7.474;2022-12-24T03:52:13;14.00;;;2.10;;
42260;SDS011;27926;48.062;7.474;2022-12-24T03:54:37;13.07;;;1.65;;
42260;SDS011;27926;48.062;7.474;2022-12-24T03:57:02;11.38;;;1.70;;
42260;SDS011;27926;48.062;7.474;2022-12-24T03:59:27;16.08;;;3.10;;
42260;SDS011;27926;48.062;7.474;2022-12-24T04:01:52;15.25;;;2.28;;
42260;SDS011;27926;48.062;7.474;2022-12-24T04:04:16;19.05;;;2.30;;
42260;SDS011;27926;48.062;7.474;2022-12-24T04:06:41;10.05;;;1.63;;
42260;SDS011;27926;48.062;7.474;2022-12-24T04:09:06;15.38;;;1.95;;
42260;SDS011;27926;48.062;7.474;2022-12-24T04:11:31;5.38;;;1.15;;
42260;SDS011;27926;48.062;7.474;2022-12-24T04:13:56;11.80;;;2.00;;
42260;SDS011;27926;48.062;7.474;2022-12-24T04:16:21;15.57;;;3.57;;
42260;SDS011;27926;48.062;7.474;2022-12-24T04:18:45;15.18;;;1.52;;
42260;SDS011;27926;48.062;7.474;2022-12-24T04:21:10;5.10;;;1.23;;
42260;SDS011;27926;48.062;7.474;2022-12-24T04:23:35;13.00;;;1.45;;
42260;SDS011;27926;48.062;7.474;2022-12-24T04:26:01;8.68;;;1.30;;
42260;SDS011;27926;48.062;7.474;2022-12-24T04:28:28;14.48;;;1.90;;
42260;SDS011;27926;48.062;7.474;2022-12-24T04:30:57;14.57;;;1.65;;
42260;SDS011;27926;48.062;7.474;2022-12-24T04:33:22;9.02;;;1.30;;
42260;SDS011;27926;48.062;7.474;2022-12-24T04:35:47;11.25;;;2.47;;
42260;SDS011;27926;48.062;7.474;2022-12-24T04:38:12;12.25;;;1.73;;
42260;SDS011;27926;48.062;7.474;2022-12-24T04:40:36;3.63;;;1.00;;
42260;SDS011;27926;48.062;7.474;2022-12-24T04:43:01;9.05;;;1.88;;
42260;SDS011;27926;48.062;7.474;2022-12-24T04:45:25;14.75;;;1.73;;
42260;SDS011;27926;48.062;7.474;2022-12-24T04:47:50;14.75;;;2.35;;
42260;SDS011;27926;48.062;7.474;2022-12-24T04:50:14;7.85;;;1.60;;
42260;SDS011;27926;48.062;7.474;2022-12-24T04:52:39;13.27;;;1.48;;
42260;SDS011;27926;48.062;7.474;2022-12-24T04:55:04;11.10;;;1.88;;
42260;SDS011;27926;48.062;7.474;2022-12-24T04:57:32;18.95;;;1.55;;
42260;SDS011;27926;48.062;7.474;2022-12-24T04:59:58;13.30;;;2.20;;
42260;SDS011;27926;48.062;7.474;2022-12-24T05:02:23;12.25;;;2.08;;
42260;SDS011;27926;48.062;7.474;2022-12-24T05:04:48;13.23;;;2.20;;
42260;SDS011;27926;48.062;7.474;2022-12-24T05:07:12;11.32;;;1.90;;
42260;SDS011;27926;48.062;7.474;2022-12-24T05:09:37;20.50;;;2.38;;
42260;SDS011;27926;48.062;7.474;2022-12-24T05:12:01;11.95;;;2.40;;
42260;SDS011;27926;48.062;7.474;2022-12-24T05:14:26;10.20;;;1.58;;
42260;SDS011;27926;48.062;7.474;2022-12-24T05:16:50;9.35;;;1.80;;
42260;SDS011;27926;48.062;7.474;2022-12-24T05:19:15;16.95;;;2.15;;
42260;SDS011;27926;48.062;7.474;2022-12-24T05:21:40;19.10;;;2.20;;
42260;SDS011;27926;48.062;7.474;2022-12-24T05:24:04;17.80;;;2.10;;
42260;SDS011;27926;48.062;7.474;2022-12-24T05:26:48;22.95;;;2.92;;
42260;SDS011;27926;48.062;7.474;2022-12-24T05:29:15;17.92;;;2.13;;
42260;SDS011;27926;48.062;7.474;2022-12-24T05:31:40;31.95;;;2.80;;
42260;SDS011;27926;48.062;7.474;2022-12-24T05:34:08;13.80;;;1.67;;
42260;SDS011;27926;48.062;7.474;2022-12-24T05:36:33;14.48;;;2.25;;
42260;SDS011;27926;48.062;7.474;2022-12-24T05:38:58;15.00;;;1.92;;
42260;SDS011;27926;48.062;7.474;2022-12-24T05:41:23;33.67;;;3.23;;
42260;SDS011;27926;48.062;7.474;2022-12-24T05:43:48;23.47;;;2.60;;
42260;SDS011;27926;48.062;7.474;2022-12-24T05:46:15;26.23;;;3.22;;
42260;SDS011;27926;48.062;7.474;2022-12-24T05:48:41;18.35;;;2.67;;
42260;SDS011;27926;48.062;7.474;2022-12-24T05:51:07;36.85;;;7.15;;
42260;SDS011;27926;48.062;7.474;2022-12-24T05:53:33;72.05;;;18.70;;
42260;SDS011;27926;48.062;7.474;2022-12-24T05:56:08;38.75;;;8.23;;
42260;SDS011;27926;48.062;7.474;2022-12-24T05:58:34;26.13;;;6.72;;
42260;SDS011;27926;48.062;7.474;2022-12-24T06:01:00;21.73;;;4.85;;
42260;SDS011;27926;48.062;7.474;2022-12-24T06:03:26;22.25;;;2.47;;
42260;SDS011;27926;48.062;7.474;2022-12-24T06:06:03;12.05;;;2.35;;
42260;SDS011;27926;48.062;7.474;2022-12-24T06:08:37;27.02;;;4.15;;
42260;SDS011;27926;48.062;7.474;2022-12-24T06:11:03;17.42;;;2.65;;
42260;SDS011;27926;48.062;7.474;2022-12-24T06:13:29;27.00;;;3.88;;
42260;SDS011;27926;48.062;7.474;2022-12-24T06:15:58;15.40;;;2.85;;
42260;SDS011;27926;48.062;7.474;2022-12-24T06:18:25;10.68;;;2.53;;
42260;SDS011;27926;48.062;7.474;2022-12-24T06:20:50;25.95;;;3.92;;
42260;SDS011;27926;48.062;7.474;2022-12-24T06:23:18;17.50;;;2.63;;
42260;SDS011;27926;48.062;7.474;2022-12-24T06:25:44;15.15;;;2.85;;
42260;SDS011;27926;48.062;7.474;2022-12-24T06:28:09;29.87;;;5.53;;
42260;SDS011;27926;48.062;7.474;2022-12-24T06:30:34;13.50;;;2.90;;
42260;SDS011;27926;48.062;7.474;2022-12-24T06:32:58;33.20;;;11.13;;
42260;SDS011;27926;48.062;7.474;2022-12-24T06:35:23;31.52;;;6.00;;
42260;SDS011;27926;48.062;7.474;2022-12-24T06:37:48;19.05;;;5.75;;
42260;SDS011;27926;48.062;7.474;2022-12-24T06:40:12;20.35;;;4.45;;
42260;SDS011;27926;48.062;7.474;2022-12-24T06:42:37;23.83;;;6.82;;
42260;SDS011;27926;48.062;7.474;2022-12-24T06:45:01;16.17;;;3.30;;
42260;SDS011;27926;48.062;7.474;2022-12-24T06:47:26;19.25;;;2.50;;
42260;SDS011;27926;48.062;7.474;2022-12-24T06:49:51;14.43;;;3.58;;
42260;SDS011;27926;48.062;7.474;2022-12-24T06:52:15;11.70;;;2.92;;
42260;SDS011;27926;48.062;7.474;2022-12-24T06:54:40;18.55;;;4.45;;
42260;SDS011;27926;48.062;7.474;2022-12-24T06:57:04;8.63;;;2.45;;
42260;SDS011;27926;48.062;7.474;2022-12-24T06:59:30;18.00;;;3.38;;
42260;SDS011;27926;48.062;7.474;2022-12-24T07:01:54;22.65;;;3.53;;
42260;SDS011;27926;48.062;7.474;2022-12-24T07:04:19;13.20;;;3.83;;
42260;SDS011;27926;48.062;7.474;2022-12-24T07:06:44;18.85;;;2.70;;
42260;SDS011;27926;48.062;7.474;2022-12-24T07:09:10;12.05;;;3.63;;
42260;SDS011;27926;48.062;7.474;2022-12-24T07:11:37;17.63;;;5.05;;
42260;SDS011;27926;48.062;7.474;2022-12-24T07:14:02;27.25;;;7.80;;
42260;SDS011;27926;48.062;7.474;2022-12-24T07:16:26;19.15;;;6.38;;
42260;SDS011;27926;48.062;7.474;2022-12-24T07:18:51;12.65;;;4.85;;
42260;SDS011;27926;48.062;7.474;2022-12-24T07:21:15;11.82;;;3.40;;
42260;SDS011;27926;48.062;7.474;2022-12-24T07:23:40;18.08;;;3.47;;
42260;SDS011;27926;48.062;7.474;2022-12-24T07:26:05;24.92;;;3.28;;
42260;SDS011;27926;48.062;7.474;2022-12-24T07:28:30;19.55;;;3.08;;
42260;SDS011;27926;48.062;7.474;2022-12-24T07:30:55;13.23;;;2.67;;
42260;SDS011;27926;48.062;7.474;2022-12-24T07:33:20;16.33;;;2.95;;
42260;SDS011;27926;48.062;7.474;2022-12-24T07:35:45;18.75;;;4.15;;
42260;SDS011;27926;48.062;7.474;2022-12-24T07:38:09;22.60;;;4.72;;
42260;SDS011;27926;48.062;7.474;2022-12-24T07:40:34;27.10;;;3.58;;
42260;SDS011;27926;48.062;7.474;2022-12-24T07:42:59;22.83;;;3.63;;
42260;SDS011;27926;48.062;7.474;2022-12-24T07:45:23;17.90;;;2.30;;
42260;SDS011;27926;48.062;7.474;2022-12-24T07:47:48;20.23;;;2.75;;
42260;SDS011;27926;48.062;7.474;2022-12-24T07:50:12;22.75;;;4.63;;
42260;SDS011;27926;48.062;7.474;2022-12-24T07:52:37;18.35;;;3.50;;
42260;SDS011;27926;48.062;7.474;2022-12-24T07:55:02;22.23;;;3.28;;
42260;SDS011;27926;48.062;7.474;2022-12-24T07:57:26;14.07;;;2.72;;
42260;SDS011;27926;48.062;7.474;2022-12-24T07:59:51;18.80;;;3.08;;
42260;SDS011;27926;48.062;7.474;2022-12-24T08:02:15;24.30;;;5.05;;
42260;SDS011;27926;48.062;7.474;2022-12-24T08:04:40;25.75;;;4.45;;
42260;SDS011;27926;48.062;7.474;2022-12-24T08:07:06;14.23;;;3.75;;
42260;SDS011;27926;48.062;7.474;2022-12-24T08:09:31;24.88;;;3.03;;
42260;SDS011;27926;48.062;7.474;2022-12-24T08:11:56;13.57;;;3.20;;
42260;SDS011;27926;48.062;7.474;2022-12-24T08:14:21;17.40;;;2.92;;
42260;SDS011;27926;48.062;7.474;2022-12-24T08:16:46;12.68;;;2.75;;
42260;SDS011;27926;48.062;7.474;2022-12-24T08:19:10;7.20;;;1.83;;
42260;SDS011;27926;48.062;7.474;2022-12-24T08:21:35;17.08;;;3.17;;
42260;SDS011;27926;48.062;7.474;2022-12-24T08:23:59;19.58;;;3.00;;
42260;SDS011;27926;48.062;7.474;2022-12-24T08:26:24;18.48;;;3.00;;
42260;SDS011;27926;48.062;7.474;2022-12-24T08:28:48;24.35;;;4.45;;
42260;SDS011;27926;48.062;7.474;2022-12-24T08:31:13;19.75;;;3.20;;
42260;SDS011;27926;48.062;7.474;2022-12-24T08:33:38;17.73;;;4.55;;
42260;SDS011;27926;48.062;7.474;2022-12-24T08:36:03;11.65;;;3.30;;
42260;SDS011;27926;48.062;7.474;2022-12-24T08:38:28;14.32;;;3.28;;
42260;SDS011;27926;48.062;7.474;2022-12-24T08:40:53;21.65;;;3.28;;
42260;SDS011;27926;48.062;7.474;2022-12-24T08:43:18;17.30;;;3.13;;
42260;SDS011;27926;48.062;7.474;2022-12-24T08:45:44;17.42;;;3.13;;
42260;SDS011;27926;48.062;7.474;2022-12-24T08:48:09;15.48;;;2.75;;
42260;SDS011;27926;48.062;7.474;2022-12-24T08:50:34;20.75;;;2.53;;
42260;SDS011;27926;48.062;7.474;2022-12-24T08:53:01;28.52;;;3.92;;
42260;SDS011;27926;48.062;7.474;2022-12-24T08:55:26;26.48;;;3.03;;
42260;SDS011;27926;48.062;7.474;2022-12-24T08:57:51;25.13;;;4.25;;
42260;SDS011;27926;48.062;7.474;2022-12-24T09:00:15;25.27;;;4.78;;
42260;SDS011;27926;48.062;7.474;2022-12-24T09:02:40;11.77;;;2.73;;
42260;SDS011;27926;48.062;7.474;2022-12-24T09:05:05;20.08;;;3.15;;
42260;SDS011;27926;48.062;7.474;2022-12-24T09:07:30;20.45;;;3.65;;
42260;SDS011;27926;48.062;7.474;2022-12-24T09:09:54;17.52;;;2.70;;
42260;SDS011;27926;48.062;7.474;2022-12-24T09:12:19;16.30;;;2.45;;
42260;SDS011;27926;48.062;7.474;2022-12-24T09:14:44;16.95;;;3.13;;
42260;SDS011;27926;48.062;7.474;2022-12-24T09:17:08;17.98;;;3.17;;
42260;SDS011;27926;48.062;7.474;2022-12-24T09:19:33;19.88;;;2.47;;
42260;SDS011;27926;48.062;7.474;2022-12-24T09:21:58;27.50;;;3.95;;
42260;SDS011;27926;48.062;7.474;2022-12-24T09:24:22;23.17;;;3.00;;
42260;SDS011;27926;48.062;7.474;2022-12-24T09:26:47;18.27;;;2.88;;
42260;SDS011;27926;48.062;7.474;2022-12-24T09:29:12;16.25;;;2.00;;
42260;SDS011;27926;48.062;7.474;2022-12-24T09:31:37;16.92;;;2.90;;
42260;SDS011;27926;48.062;7.474;2022-12-24T09:34:01;19.23;;;2.55;;
42260;SDS011;27926;48.062;7.474;2022-12-24T09:36:26;20.20;;;2.50;;
42260;SDS011;27926;48.062;7.474;2022-12-24T09:38:50;9.63;;;2.10;;
42260;SDS011;27926;48.062;7.474;2022-12-24T09:44:13;9.50;;;1.90;;
42260;SDS011;27926;48.062;7.474;2022-12-24T09:47:00;15.10;;;2.20;;
42260;SDS011;27926;48.062;7.474;2022-12-24T09:49:38;20.88;;;2.63;;
42260;SDS011;27926;48.062;7.474;2022-12-24T09:52:07;12.82;;;2.60;;
42260;SDS011;27926;48.062;7.474;2022-12-24T09:54:44;16.05;;;2.55;;
42260;SDS011;27926;48.062;7.474;2022-12-24T09:57:16;19.55;;;2.67;;
42260;SDS011;27926;48.062;7.474;2022-12-24T09:59:51;20.55;;;2.58;;
42260;SDS011;27926;48.062;7.474;2022-12-24T10:02:16;15.40;;;2.35;;
42260;SDS011;27926;48.062;7.474;2022-12-24T10:07:16;10.40;;;1.73;;
42260;SDS011;27926;48.062;7.474;2022-12-24T10:10:02;13.20;;;3.20;;
42260;SDS011;27926;48.062;7.474;2022-12-24T10:12:43;9.02;;;1.88;;
42260;SDS011;27926;48.062;7.474;2022-12-24T10:23:44;16.52;;;2.28;;
42260;SDS011;27926;48.062;7.474;2022-12-24T10:26:17;11.02;;;2.13;;
42260;SDS011;27926;48.062;7.474;2022-12-24T10:34:23;11.52;;;2.15;;
42260;SDS011;27926;48.062;7.474;2022-12-24T10:36:51;15.40;;;2.08;;
42260;SDS011;27926;48.062;7.474;2022-12-24T10:39:17;8.25;;;1.55;;
42260;SDS011;27926;48.062;7.474;2022-12-24T10:41:53;12.82;;;2.00;;
42260;SDS011;27926;48.062;7.474;2022-12-24T10:44:21;9.40;;;1.42;;
42260;SDS011;27926;48.062;7.474;2022-12-24T10:46:51;11.20;;;1.77;;
42260;SDS011;27926;48.062;7.474;2022-12-24T10:49:21;8.23;;;1.58;;
42260;SDS011;27926;48.062;7.474;2022-12-24T10:51:56;9.15;;;1.77;;
42260;SDS011;27926;48.062;7.474;2022-12-24T10:54:26;9.57;;;1.77;;
42260;SDS011;27926;48.062;7.474;2022-12-24T10:56:58;7.35;;;1.50;;
42260;SDS011;27926;48.062;7.474;2022-12-24T10:59:28;7.85;;;1.85;;
42260;SDS011;27926;48.062;7.474;2022-12-24T11:01:57;12.40;;;2.33;;
42260;SDS011;27926;48.062;7.474;2022-12-24T11:04:24;11.00;;;1.83;;
42260;SDS011;27926;48.062;7.474;2022-12-24T11:06:51;9.38;;;1.55;;
42260;SDS011;27926;48.062;7.474;2022-12-24T11:09:28;11.57;;;2.17;;
42260;SDS011;27926;48.062;7.474;2022-12-24T11:11:55;10.13;;;1.88;;
42260;SDS011;27926;48.062;7.474;2022-12-24T11:14:21;9.70;;;2.28;;
42260;SDS011;27926;48.062;7.474;2022-12-24T11:16:49;5.93;;;1.65;;
42260;SDS011;27926;48.062;7.474;2022-12-24T11:19:21;12.18;;;2.05;;
42260;SDS011;27926;48.062;7.474;2022-12-24T11:22:16;9.35;;;1.52;;
42260;SDS011;27926;48.062;7.474;2022-12-24T11:24:56;7.32;;;1.77;;
42260;SDS011;27926;48.062;7.474;2022-12-24T11:27:40;9.93;;;1.88;;
42260;SDS011;27926;48.062;7.474;2022-12-24T11:32:40;11.13;;;1.98;;
42260;SDS011;27926;48.062;7.474;2022-12-24T11:35:15;9.80;;;1.60;;
42260;SDS011;27926;48.062;7.474;2022-12-24T11:37:45;9.80;;;1.63;;
42260;SDS011;27926;48.062;7.474;2022-12-24T11:42:43;6.00;;;1.58;;
42260;SDS011;27926;48.062;7.474;2022-12-24T11:45:19;4.82;;;1.50;;
42260;SDS011;27926;48.062;7.474;2022-12-24T11:47:47;8.73;;;1.40;;
42260;SDS011;27926;48.062;7.474;2022-12-24T11:50:19;9.23;;;1.70;;
42260;SDS011;27926;48.062;7.474;2022-12-24T11:52:50;11.65;;;1.90;;
42260;SDS011;27926;48.062;7.474;2022-12-24T12:01:08;7.05;;;1.50;;
42260;SDS011;27926;48.062;7.474;2022-12-24T12:03:50;8.93;;;1.55;;
42260;SDS011;27926;48.062;7.474;2022-12-24T12:06:22;15.40;;;1.87;;
42260;SDS011;27926;48.062;7.474;2022-12-24T12:09:11;13.60;;;1.60;;
42260;SDS011;27926;48.062;7.474;2022-12-24T12:11:42;6.65;;;1.50;;
42260;SDS011;27926;48.062;7.474;2022-12-24T12:14:15;7.15;;;1.30;;
42260;SDS011;27926;48.062;7.474;2022-12-24T12:19:56;10.48;;;1.75;;
42260;SDS011;27926;48.062;7.474;2022-12-24T12:25:05;7.38;;;1.77;;
42260;SDS011;27926;48.062;7.474;2022-12-24T12:31:46;11.38;;;1.98;;
42260;SDS011;27926;48.062;7.474;2022-12-24T12:36:41;8.70;;;1.83;;
42260;SDS011;27926;48.062;7.474;2022-12-24T12:39:14;8.15;;;1.52;;
42260;SDS011;27926;48.062;7.474;2022-12-24T12:44:47;12.63;;;2.20;;
42260;SDS011;27926;48.062;7.474;2022-12-24T12:50:04;5.30;;;1.45;;
42260;SDS011;27926;48.062;7.474;2022-12-24T12:55:33;5.50;;;1.38;;
42260;SDS011;27926;48.062;7.474;2022-12-24T12:58:18;10.23;;;1.63;;
42260;SDS011;27926;48.062;7.474;2022-12-24T13:00:49;3.63;;;1.33;;
42260;SDS011;27926;48.062;7.474;2022-12-24T13:06:28;10.75;;;2.13;;
42260;SDS011;27926;48.062;7.474;2022-12-24T13:10:02;6.40;;;1.38;;
42260;SDS011;27926;48.062;7.474;2022-12-24T13:15:25;7.63;;;2.13;;
42260;SDS011;27926;48.062;7.474;2022-12-24T13:21:12;5.60;;;1.45;;
42260;SDS011;27926;48.062;7.474;2022-12-24T13:23:44;9.25;;;1.60;;
42260;SDS011;27926;48.062;7.474;2022-12-24T13:26:10;8.65;;;1.98;;
42260;SDS011;27926;48.062;7.474;2022-12-24T13:28:37;6.15;;;1.48;;
42260;SDS011;27926;48.062;7.474;2022-12-24T13:33:47;6.05;;;1.80;;
42260;SDS011;27926;48.062;7.474;2022-12-24T13:36:17;8.65;;;2.22;;
42260;SDS011;27926;48.062;7.474;2022-12-24T13:46:45;9.82;;;1.77;;
42260;SDS011;27926;48.062;7.474;2022-12-24T13:49:11;7.38;;;1.88;;
42260;SDS011;27926;48.062;7.474;2022-12-24T13:51:44;13.20;;;1.65;;
42260;SDS011;27926;48.062;7.474;2022-12-24T13:54:11;9.40;;;2.08;;
42260;SDS011;27926;48.062;7.474;2022-12-24T13:56:37;4.97;;;1.38;;
42260;SDS011;27926;48.062;7.474;2022-12-24T14:01:49;10.90;;;1.80;;
42260;SDS011;27926;48.062;7.474;2022-12-24T14:04:25;6.85;;;1.60;;
42260;SDS011;27926;48.062;7.474;2022-12-24T14:06:52;7.88;;;1.95;;
42260;SDS011;27926;48.062;7.474;2022-12-24T14:09:20;7.55;;;1.65;;
42260;SDS011;27926;48.062;7.474;2022-12-24T14:16:52;12.57;;;1.88;;
42260;SDS011;27926;48.062;7.474;2022-12-24T14:20:04;9.07;;;1.60;;
42260;SDS011;27926;48.062;7.474;2022-12-24T14:24:40;10.00;;;1.80;;
42260;SDS011;27926;48.062;7.474;2022-12-24T14:28:06;9.23;;;1.50;;
42260;SDS011;27926;48.062;7.474;2022-12-24T14:32:35;6.88;;;1.80;;
42260;SDS011;27926;48.062;7.474;2022-12-24T14:35:05;8.40;;;1.90;;
42260;SDS011;27926;48.062;7.474;2022-12-24T14:37:37;6.32;;;1.95;;
42260;SDS011;27926;48.062;7.474;2022-12-24T14:47:51;6.75;;;1.70;;
42260;SDS011;27926;48.062;7.474;2022-12-24T14:53:18;9.27;;;2.05;;
42260;SDS011;27926;48.062;7.474;2022-12-24T14:55:50;16.13;;;2.63;;
42260;SDS011;27926;48.062;7.474;2022-12-24T15:00:49;10.90;;;1.85;;
42260;SDS011;27926;48.062;7.474;2022-12-24T15:03:15;8.55;;;1.60;;
42260;SDS011;27926;48.062;7.474;2022-12-24T15:05:42;10.25;;;1.98;;
42260;SDS011;27926;48.062;7.474;2022-12-24T15:08:08;8.82;;;1.90;;
42260;SDS011;27926;48.062;7.474;2022-12-24T15:10:40;6.20;;;2.10;;
42260;SDS011;27926;48.062;7.474;2022-12-24T15:15:44;10.98;;;2.05;;
42260;SDS011;27926;48.062;7.474;2022-12-24T15:18:13;6.10;;;1.83;;
42260;SDS011;27926;48.062;7.474;2022-12-24T15:20:42;9.18;;;1.95;;
42260;SDS011;27926;48.062;7.474;2022-12-24T15:23:15;7.88;;;2.42;;
42260;SDS011;27926;48.062;7.474;2022-12-24T15:25:42;9.02;;;2.00;;
42260;SDS011;27926;48.062;7.474;2022-12-24T15:28:16;8.18;;;2.15;;
42260;SDS011;27926;48.062;7.474;2022-12-24T15:30:42;10.20;;;2.17;;
42260;SDS011;27926;48.062;7.474;2022-12-24T15:33:08;12.05;;;2.17;;
42260;SDS011;27926;48.062;7.474;2022-12-24T15:35:42;8.63;;;2.10;;
42260;SDS011;27926;48.062;7.474;2022-12-24T15:40:49;9.93;;;2.90;;
42260;SDS011;27926;48.062;7.474;2022-12-24T15:43:14;8.35;;;2.22;;
42260;SDS011;27926;48.062;7.474;2022-12-24T15:45:41;5.40;;;1.67;;
42260;SDS011;27926;48.062;7.474;2022-12-24T15:48:08;8.43;;;2.00;;
42260;SDS011;27926;48.062;7.474;2022-12-24T15:50:35;10.10;;;2.45;;
42260;SDS011;27926;48.062;7.474;2022-12-24T15:53:06;7.15;;;2.17;;
42260;SDS011;27926;48.062;7.474;2022-12-24T15:58:34;8.70;;;2.17;;
42260;SDS011;27926;48.062;7.474;2022-12-24T16:01:07;9.10;;;2.03;;
42260;SDS011;27926;48.062;7.474;2022-12-24T16:06:15;6.63;;;1.90;;
42260;SDS011;27926;48.062;7.474;2022-12-24T16:08:41;5.43;;;1.67;;
42260;SDS011;27926;48.062;7.474;2022-12-24T16:11:11;16.92;;;2.60;;
42260;SDS011;27926;48.062;7.474;2022-12-24T16:13:43;15.73;;;2.53;;
42260;SDS011;27926;48.062;7.474;2022-12-24T16:16:15;6.78;;;2.13;;
42260;SDS011;27926;48.062;7.474;2022-12-24T16:23:52;9.27;;;1.73;;
42260;SDS011;27926;48.062;7.474;2022-12-24T16:26:19;7.90;;;1.63;;
42260;SDS011;27926;48.062;7.474;2022-12-24T16:28:46;7.82;;;1.80;;
42260;SDS011;27926;48.062;7.474;2022-12-24T16:31:15;9.02;;;2.03;;
42260;SDS011;27926;48.062;7.474;2022-12-24T16:33:40;3.42;;;1.20;;
42260;SDS011;27926;48.062;7.474;2022-12-24T16:36:07;10.55;;;1.73;;
42260;SDS011;27926;48.062;7.474;2022-12-24T16:38:32;6.50;;;2.03;;
42260;SDS011;27926;48.062;7.474;2022-12-24T16:41:16;2.88;;;1.13;;
42260;SDS011;27926;48.062;7.474;2022-12-24T16:43:41;5.70;;;1.50;;
42260;SDS011;27926;48.062;7.474;2022-12-24T16:46:14;11.30;;;1.65;;
42260;SDS011;27926;48.062;7.474;2022-12-24T16:48:39;5.32;;;1.60;;
42260;SDS011;27926;48.062;7.474;2022-12-24T16:51:09;10.20;;;1.90;;
42260;SDS011;27926;48.062;7.474;2022-12-24T16:53:33;7.15;;;1.17;;
42260;SDS011;27926;48.062;7.474;2022-12-24T16:55:58;6.60;;;2.20;;
42260;SDS011;27926;48.062;7.474;2022-12-24T16:58:22;3.63;;;1.13;;